Latest Weather Observations for Richmond

IDQ60801

Issued at 9:35 am EST Wednesday 3 September 2014 (issued every 30 minutes, with the page automatically refreshed every 10 minutes)

About weather observations | Map of weather stations | Latest weather observations for QLD | Other Formats
Station Details ID: 030161 Name: RICHMOND AIRPORT Lat: -20.70 Lon: 143.12 Height: 206.3 m
Data from the previous 72 hours. | See also: Recent months at Richmond
Date/Time
EST
Temp
°C
App
Temp
°C
Dew
Point
Rel
Hum
%
Delta-T
°C
Wind Press
QNH
hPa
Press
MSL
hPa
Rain
since 9 am
mm
Dir
 
Spd
km/h
Gust
km/h
Spd
kts
Gust
kts
03/09:30am 17.5 10.0 -1.7 27 8.1 ESE 28 41 15 22 1021.1 1020.1 0.0
03/09:00am 16.4 9.2 -1.7 29 7.5 ESE 26 35 14 19 1021.1 1020.1 0.0
03/08:30am 15.0 8.2 -2.0 31 7.0 SE 24 32 13 17 1020.8 1019.8 0.0
03/08:00am 12.8 6.7 -2.6 34 6.1 SE 20 24 11 13 1020.7 1019.7 0.0
03/07:30am 11.8 6.2 -2.8 36 5.7 SE 17 20 9 11 1020.4 1019.4 0.0
03/07:00am 10.4 5.3 -2.3 41 4.9 SE 15 20 8 11 1020.2 1019.2 0.0
03/06:30am 9.0 3.7 -3.2 42 4.5 SE 15 19 8 10 1020.1 1019.1 0.0
03/06:00am 8.4 3.1 -3.7 42 4.4 SE 15 17 8 9 1019.9 1018.9 0.0
03/05:30am 9.2 3.9 -3.7 40 4.8 ESE 15 17 8 9 1019.1 1018.2 0.0
03/05:00am 10.7 5.8 -3.0 38 5.2 E 13 15 7 8 1018.7 1017.8 0.0
03/04:30am 11.5 6.3 -3.0 36 5.6 E 15 17 8 9 1018.5 1017.6 0.0
03/04:00am 12.2 7.3 -3.2 34 5.9 E 13 15 7 8 1018.4 1017.5 0.0
03/03:30am 11.4 6.4 -3.9 34 5.8 ESE 13 15 7 8 1018.5 1017.6 0.0
03/03:00am 11.7 6.3 -4.4 32 6.0 SE 15 17 8 9 1018.5 1017.6 0.0
03/02:30am 12.2 6.5 -4.0 32 6.2 SE 17 20 9 11 1018.4 1017.5 0.0
03/02:00am 11.8 7.5 -4.8 31 6.1 SE 9 13 5 7 1018.6 1017.7 0.0
03/01:30am 12.2 7.0 -5.7 28 6.5 SSE 13 17 7 9 1018.5 1017.6 0.0
03/01:00am 13.3 8.2 -5.3 27 6.9 SE 13 15 7 8 1018.6 1017.7 0.0
03/12:30am 13.4 7.9 -5.7 26 7.1 SSE 15 17 8 9 1018.4 1017.5 0.0
03/12:00am 14.1 8.6 -5.6 25 7.4 SE 15 17 8 9 1018.5 1017.6 0.0
 
Date/Time
EST
Temp
°C
App
Temp
°C
Dew
Point
Rel
Hum
%
Delta-T
°C
Wind Press
QNH
hPa
Press
MSL
hPa
Rain
since 9 am
mm
Dir
 
Spd
km/h
Gust
km/h
Spd
kts
Gust
kts
02/11:30pm 15.2 9.7 -5.2 24 7.8 SSE 15 17 8 9 1018.5 1017.6 0.0
02/11:00pm 16.8 10.6 -5.0 22 8.5 S 19 22 10 12 1018.6 1017.7 0.0
02/10:30pm 18.0 11.6 -4.6 21 9.0 S 20 24 11 13 1018.3 1017.4 0.0
02/10:00pm 19.2 12.1 -4.3 20 9.5 S 24 32 13 17 1018.3 1017.4 0.0
02/09:30pm 19.8 13.2 -3.1 21 9.6 S 22 28 12 15 1018.0 1017.1 0.0
02/09:00pm 20.6 14.5 -2.5 21 9.8 S 20 24 11 13 1017.7 1016.8 0.0
02/08:30pm 21.5 15.6 -1.1 22 10.0 S 20 24 11 13 1017.4 1016.4 0.0
02/08:00pm 22.1 16.2 -0.6 22 10.2 S 20 24 11 13 1017.0 1016.0 0.0
02/07:30pm 22.8 17.1 -0.6 21 10.6 S 19 20 10 11 1016.8 1015.8 0.0
02/07:00pm 24.2 18.5 -0.9 19 11.4 S 19 20 10 11 1016.4 1015.4 0.0
02/06:30pm 26.0 19.8 -0.1 18 12.2 S 22 30 12 16 1015.8 1014.8 0.0
02/06:00pm 27.8 20.7 -1.2 15 13.5 S 26 32 14 17 1015.7 1014.7 0.0
02/05:30pm 28.8 21.8 -0.4 15 13.9 S 26 43 14 23 1015.6 1014.6 0.0
02/05:00pm 29.6 22.6 -0.7 14 14.4 S 26 35 14 19 1015.4 1014.4 0.0
02/04:30pm 30.0 22.4 -2.5 12 15.0 S 28 35 15 19 1015.1 1014.1 0.0
02/04:00pm 30.7 22.9 -0.8 13 15.0 SSW 30 43 16 23 1015.1 1014.1 0.0
02/03:30pm 31.0 24.6 -1.7 12 15.4 S 22 35 12 19 1015.1 1014.1 0.0
02/03:00pm 30.4 23.2 -2.2 12 15.2 S 26 39 14 21 1015.6 1014.6 0.0
02/02:30pm 31.3 23.4 -1.5 12 15.6 SSW 30 43 16 23 1015.8 1014.8 0.0
02/02:00pm 31.1 24.0 -1.6 12 15.4 SSE 26 43 14 23 1016.1 1015.1 0.0
02/01:30pm 30.9 23.3 -1.8 12 15.4 S 28 39 15 21 1016.4 1015.4 0.0
02/01:00pm 30.6 23.4 -2.0 12 15.2 S 26 35 14 19 1016.7 1015.7 0.0
02/12:30pm 30.2 23.7 -2.3 12 15.1 S 22 35 12 19 1017.0 1016.0 0.0
02/12:00pm 29.4 23.0 -1.9 13 14.5 SSE 22 33 12 18 1017.5 1016.5 0.0
02/11:30am 28.3 22.7 -2.7 13 14.1 SSE 17 22 9 12 1018.1 1017.2 0.0
02/11:00am 27.7 21.6 -2.2 14 13.6 S 20 28 11 15 1018.5 1017.6 0.0
02/10:30am 26.3 19.8 -2.4 15 12.9 S 22 32 12 17 1018.9 1018.0 0.0
02/10:00am 24.5 16.7 -3.8 15 12.2 SW 28 41 15 22 1019.1 1018.2 0.0
02/09:50am 25.0 16.9 -3.4 15 12.4 SSW 30 41 16 22 1018.8 1017.9 0.0
02/09:30am 24.4 21.2 -0.7 19 11.5 WNW 6 9 3 5 1018.4 1017.5 0.0
02/09:00am 21.7 18.3 -0.9 22 10.0 N 7 13 4 7 1018.0 1017.1 0.0
02/08:30am 19.1 14.8 -1.4 25 8.8 NNE 11 15 6 8 1017.8 1016.9 0.0
02/08:00am 15.8 12.6 -3.1 27 7.6 E 4 6 2 3 1017.7 1016.8 0.0
02/07:30am 12.8 9.1 -4.3 30 6.5 ENE 6 7 3 4 1017.6 1016.7 0.0
02/07:00am 10.5 6.8 -4.7 34 5.6 ENE 6 7 3 4 1017.2 1016.2 0.0
02/06:30am 10.8 6.5 -4.4 34 5.6 E 9 13 5 7 1016.7 1015.7 0.0
02/06:00am 10.2 5.9 -5.3 33 5.6 E 9 11 5 6 1016.5 1015.5 0.0
02/05:30am 9.9 5.4 -6.4 31 5.7 E 9 9 5 5 1016.4 1015.4 0.0
02/05:00am 11.3 7.0 -5.2 31 6.0 ENE 9 11 5 6 1016.1 1015.1 0.0
02/04:30am 12.4 8.1 -5.1 29 6.5 NE 9 13 5 7 1016.0 1015.0 0.0
02/04:00am 13.2 9.2 -5.4 27 6.9 E 7 7 4 4 1015.8 1014.8 0.0
02/03:30am 12.8 8.8 -5.2 28 6.7 ESE 7 7 4 4 1015.8 1014.8 0.0
02/03:00am 11.4 7.7 -8.4 24 6.7 ENE 4 9 2 5 1015.8 1014.8 0.0
02/02:30am 13.3 8.6 -5.3 27 6.9 NE 11 13 6 7 1015.9 1014.9 0.0
02/02:00am 14.7 10.0 -4.6 26 7.4 E 11 13 6 7 1016.2 1015.2 0.0
02/01:30am 15.3 10.9 -5.7 23 8.0 ESE 9 11 5 6 1016.3 1015.3 0.0
02/01:00am 16.0 11.7 -4.5 24 8.0 SE 9 9 5 5 1016.5 1015.5 0.0
02/12:30am 16.2 11.8 -5.5 22 8.3 ESE 9 11 5 6 1016.4 1015.4 0.0
02/12:00am 14.7 9.4 -6.8 22 7.9 S 13 15 7 8 1016.5 1015.5 0.0
 
Date/Time
EST
Temp
°C
App
Temp
°C
Dew
Point
Rel
Hum
%
Delta-T
°C
Wind Press
QNH
hPa
Press
MSL
hPa
Rain
since 9 am
mm
Dir
 
Spd
km/h
Gust
km/h
Spd
kts
Gust
kts
01/11:30pm 15.2 9.9 -7.6 20 8.3 SSE 13 15 7 8 1016.5 1015.5 0.0
01/11:00pm 17.2 11.7 -5.3 21 8.8 SE 15 19 8 10 1016.4 1015.4 0.0
01/10:30pm 19.5 14.5 -4.0 20 9.6 SSE 13 15 7 8 1016.3 1015.3 0.0
01/10:00pm 18.1 12.6 -5.2 20 9.2 S 15 15 8 8 1016.1 1015.1 0.0
01/09:30pm 21.3 16.7 -4.0 18 10.6 SSE 11 13 6 7 1016.1 1015.1 0.0
01/09:00pm 19.1 14.1 -4.4 20 9.5 S 13 13 7 7 1015.7 1014.7 0.0
01/08:30pm 21.4 16.8 -3.9 18 10.6 S 11 13 6 7 1015.6 1014.6 0.0
01/08:00pm 22.0 18.3 -4.1 17 10.9 S 6 11 3 6 1015.3 1014.3 0.0
01/07:30pm 24.4 20.4 -2.2 17 11.8 ESE 9 11 5 6 1014.8 1013.8 0.0
01/07:00pm 25.7 21.6 -2.8 15 12.6 ESE 9 9 5 5 1014.3 1013.4 0.0
01/06:30pm 27.0 22.8 -3.7 13 13.5 SE 9 11 5 6 1014.2 1013.3 0.0
01/06:00pm 28.6 23.8 -2.5 13 14.2 SSE 13 15 7 8 1014.1 1013.2 0.0
01/05:30pm 29.8 25.4 -2.6 12 14.9 SE 11 17 6 9 1014.0 1013.1 0.0
01/05:00pm 30.8 27.4 -1.9 12 15.3 SSW 6 9 3 5 1013.7 1012.8 0.0
01/04:30pm 30.5 26.5 -2.1 12 15.2 S 9 20 5 11 1013.6 1012.7 0.0
01/04:00pm 31.0 27.1 -1.7 12 15.4 SW 9 20 5 11 1013.5 1012.6 0.0
01/03:30pm 31.2 26.8 -2.7 11 15.7 SSE 11 20 6 11 1013.5 1012.6 0.0
01/03:00pm 30.3 26.3 -2.2 12 15.1 S 9 24 5 13 1013.8 1012.9 0.0
01/02:30pm 30.2 26.0 -1.2 13 14.8 SE 11 19 6 10 1014.0 1013.1 0.0
01/02:00pm 30.1 26.6 -1.3 13 14.8 SE 7 19 4 10 1014.6 1013.6 0.0
01/01:30pm 29.5 26.3 -0.8 14 14.4 WSW 6 15 3 8 1015.3 1014.3 0.0
01/01:00pm 29.4 25.2 -0.9 14 14.3 E 11 19 6 10 1015.9 1014.9 0.0
01/12:30pm 28.5 24.2 -1.6 14 14.0 WSW 11 20 6 11 1016.4 1015.4 0.0
01/12:00pm 28.3 24.5 -0.8 15 13.6 ESE 9 17 5 9 1017.0 1016.0 0.0
01/11:30am 28.4 24.6 -0.7 15 13.7 S 9 22 5 12 1017.5 1016.5 0.0
01/11:00am 27.6 22.7 -0.5 16 13.2 E 15 20 8 11 1017.8 1016.9 0.0
01/10:30am 27.6 23.2 2.6 20 12.4 ENE 15 24 8 13 1018.2 1017.3 0.0
01/10:00am 25.9 21.1 2.6 22 11.4 NNE 17 24 9 13 1018.5 1017.6 0.0
01/09:30am 24.4 19.4 3.7 26 10.3 NNE 19 24 10 13 1018.5 1018.0 0.0
01/09:00am 22.3 18.1 3.9 30 9.0 NNE 15 20 8 11 1018.4 1017.9 0.0
01/08:30am 19.4 16.6 3.2 34 7.7 ENE 7 11 4 6 1018.4 1017.9 0.0
01/08:00am 16.2 12.6 0.3 34 6.9 E 9 11 5 6 1018.0 1017.4 0.0
01/07:30am 12.3 8.6 -2.7 35 5.9 ESE 7 9 4 5 1017.7 1017.1 0.0
01/07:00am 9.2 5.4 -5.8 34 5.3 E 6 6 3 3 1017.4 1016.8 0.0
01/06:30am 9.5 6.0 -5.9 33 5.4 ENE 4 6 2 3 1016.8 1016.2 0.0
01/06:00am 13.6 9.4 -1.2 36 6.1 NE 11 13 6 7 1016.0 1015.4 0.0
01/05:30am 14.1 9.8 -1.5 34 6.4 NE 11 13 6 7 1015.7 1015.1 0.0
01/05:00am 13.3 8.5 -2.6 33 6.3 NE 13 15 7 8 1015.4 1014.8 0.0
01/04:30am 12.8 8.6 -3.5 32 6.3 NE 9 13 5 7 1015.4 1014.8 0.0
01/04:00am 14.2 9.8 -2.2 32 6.6 ENE 11 13 6 7 1015.2 1014.6 0.0
01/03:30am 13.8 9.3 -3.0 31 6.6 ENE 11 15 6 8 1015.0 1014.4 0.0
01/03:00am 13.1 8.5 -4.1 30 6.6 E 11 13 6 7 1015.0 1014.4 0.0
01/02:30am 13.4 8.4 -4.2 29 6.7 E 13 13 7 7 1015.2 1014.6 0.0
01/02:00am 13.6 9.4 -3.6 30 6.7 E 9 13 5 7 1015.4 1014.8 0.0
01/01:30am 14.5 9.4 -5.3 25 7.5 ESE 13 15 7 8 1015.4 1014.8 0.0
01/01:00am 16.3 10.5 -4.3 24 8.1 E 17 19 9 10 1015.6 1015.0 0.0
01/12:30am 17.1 11.0 -4.2 23 8.5 E 19 20 10 11 1015.6 1015.0 0.0
01/12:00am 16.4 11.0 -4.2 24 8.1 ESE 15 17 8 9 1015.6 1015.0 0.0
 
Date/Time
EST
Temp
°C
App
Temp
°C
Dew
Point
Rel
Hum
%
Delta-T
°C
Wind Press
QNH
hPa
Press
MSL
hPa
Rain
since 9 am
mm
Dir
 
Spd
km/h
Gust
km/h
Spd
kts
Gust
kts
31/11:30pm 15.8 10.7 -5.3 23 8.1 E 13 15 7 8 1015.7 1015.1 0.0
31/11:00pm 16.7 12.1 -3.9 24 8.2 ESE 11 15 6 8 1015.7 1015.1 0.0
31/10:30pm 16.5 11.8 -4.7 23 8.3 ESE 11 13 6 7 1015.7 1015.1 0.0
31/10:00pm 16.8 11.8 -4.4 23 8.4 ESE 13 13 7 7 1015.7 1015.1 0.0
31/09:30pm 16.1 11.7 -5.6 22 8.3 SE 9 11 5 6 1015.8 1015.2 0.0
31/09:00pm 17.4 13.1 -5.1 21 8.8 SE 9 11 5 6 1015.8 1015.2 0.0
31/08:30pm 18.9 14.2 -5.2 19 9.6 SSE 11 15 6 8 1015.5 1014.9 0.0
31/08:00pm 21.4 15.4 -3.1 19 10.4 ESE 19 19 10 10 1015.1 1014.5 0.0
31/07:30pm 22.7 16.8 -2.1 19 10.9 ESE 19 20 10 11 1014.8 1014.2 0.0
31/07:00pm 22.7 17.5 -2.8 18 11.0 SE 15 17 8 9 1014.5 1013.9 0.0
31/06:30pm 24.7 19.9 -2.8 16 12.1 SE 13 15 7 8 1014.0 1013.4 0.0
31/06:00pm 27.2 21.6 -2.6 14 13.4 SSE 17 20 9 11 1013.7 1013.1 0.0
31/05:30pm 28.3 23.2 -1.7 14 13.9 SSE 15 24 8 13 1013.5 1012.9 0.0
31/05:00pm 29.0 23.6 -1.2 14 14.2 SSE 17 28 9 15 1013.3 1012.7 0.0
31/04:30pm 28.7 24.1 -1.4 14 14.0 ESE 13 17 7 9 1013.3 1012.7 0.0
31/04:00pm 29.3 26.0 -0.9 14 14.3 SSE 6 19 3 10 1013.3 1012.7 0.0
31/03:30pm 28.9 23.9 -1.2 14 14.1 SE 15 30 8 16 1013.3 1012.7 0.0
31/03:00pm 29.2 24.0 -0.1 15 14.0 S 17 26 9 14 1013.4 1012.8 0.0
31/02:30pm 28.6 22.8 -1.5 14 14.0 SE 19 24 10 13 1013.9 1013.3 0.0
31/02:00pm 28.7 23.0 0.4 16 13.6 S 20 30 11 16 1014.3 1013.8 0.0
31/01:30pm 28.1 23.1 -0.9 15 13.6 S 15 28 8 15 1014.8 1014.2 0.0
31/01:00pm 28.7 23.0 0.4 16 13.6 ESE 20 26 11 14 1015.3 1014.7 0.0
31/12:30pm 28.2 23.1 0.9 17 13.2 SE 17 30 9 16 1015.9 1015.3 0.0
31/12:00pm 27.1 22.9 1.5 19 12.4 E 13 22 7 12 1016.5 1015.9 0.0
31/11:30am 26.5 21.8 1.0 19 12.2 SSE 15 22 8 12 1017.0 1016.4 0.0
31/11:00am 26.5 24.4 1.7 20 12.0 NNE 2 9 1 5 1017.3 1016.7 0.0
31/10:30am 26.3 21.3 3.5 23 11.4 E 19 26 10 14 1017.7 1017.1 0.0
31/10:00am 25.6 20.6 3.5 24 11.0 E 19 30 10 16 1017.9 1017.3 0.0

Other Formats:

Comma delimited format used in spreadsheet applications
http://www.bom.gov.au/fwo/IDQ60801/IDQ60801.94341.axf

JavaScript Object Notation format (JSON) in row-major order
http://www.bom.gov.au/fwo/IDQ60801/IDQ60801.94341.json